Time;durP1;ratioP1;P1;durP2;ratioP2;P2;SDS_P1;SDS_P2;PMS_P1;PMS_P2;Temp;Humidity;BMP_temperature;BMP_pressure;BME280_temperature;BME280_humidity;BME280_pressure;Samples;Min_cycle;Max_cycle;Signal;HPM_P1;HPM_P2
2021/05/16 00:02:10;;;;;;;2.63;1.65;;;;;;;10.72;77.82;99539.81;5059590;28;20139;-72
2021/05/16 00:04:37;;;;;;;1.80;1.35;;;;;;;10.56;78.38;99532.22;5079814;28;20076;-71
2021/05/16 00:07:04;;;;;;;2.90;1.38;;;;;;;10.48;79.67;99527.53;5076916;28;20055;-72
2021/05/16 00:09:32;;;;;;;2.28;1.60;;;;;;;10.42;79.58;99533.28;5056862;28;20571;-71
2021/05/16 00:12:00;;;;;;;1.98;1.30;;;;;;;10.31;79.85;99520.06;5053582;28;20048;-72
2021/05/16 00:14:29;;;;;;;2.20;1.55;;;;;;;10.35;80.40;99522.34;5050494;28;20520;-72
2021/05/16 00:16:56;;;;;;;2.17;1.45;;;;;;;10.36;80.29;99516.16;5058349;28;20054;-72
2021/05/16 00:19:23;;;;;;;3.35;1.80;;;;;;;10.37;80.53;99522.25;5078454;28;20128;-70
2021/05/16 00:21:50;;;;;;;1.63;1.30;;;;;;;10.36;80.78;99525.84;5062752;28;20131;-71
2021/05/16 00:24:17;;;;;;;4.50;1.48;;;;;;;10.56;80.10;99525.16;5068564;28;20387;-70
2021/05/16 00:26:45;;;;;;;2.05;1.58;;;;;;;10.53;79.80;99520.13;5074676;28;20048;-70
2021/05/16 00:29:12;;;;;;;2.47;1.30;;;;;;;10.59;80.09;99526.75;5049964;28;20056;-72
2021/05/16 00:31:39;;;;;;;2.67;1.42;;;;;;;10.76;79.82;99525.41;5064650;28;20048;-72
2021/05/16 00:34:06;;;;;;;3.00;1.70;;;;;;;10.68;80.16;99526.03;5049613;28;20066;-71
2021/05/16 00:36:33;;;;;;;3.40;2.00;;;;;;;10.59;80.18;99526.75;5052517;28;20060;-72
2021/05/16 00:39:01;;;;;;;4.20;1.63;;;;;;;10.74;80.43;99527.34;5060463;28;20045;-71
2021/05/16 00:41:28;;;;;;;2.10;1.50;;;;;;;10.94;78.92;99518.72;5054292;28;20959;-71
2021/05/16 00:43:55;;;;;;;4.90;2.50;;;;;;;10.84;79.51;99517.78;5078154;28;20053;-72
2021/05/16 00:46:22;;;;;;;3.20;1.67;;;;;;;10.68;80.18;99519.94;5063424;28;20087;-72
2021/05/16 00:48:49;;;;;;;2.33;1.63;;;;;;;10.72;79.34;99522.22;5067480;28;20063;-72
2021/05/16 00:51:17;;;;;;;2.47;1.40;;;;;;;10.87;78.46;99526.28;5030585;28;20107;-72
2021/05/16 00:53:44;;;;;;;2.38;1.45;;;;;;;10.84;78.90;99526.50;5076970;28;20475;-71
2021/05/16 00:56:11;;;;;;;2.90;1.60;;;;;;;10.75;79.03;99521.94;5071908;28;20067;-72
2021/05/16 00:58:38;;;;;;;2.45;1.40;;;;;;;10.60;80.44;99531.03;5069669;28;20060;-71
2021/05/16 01:01:09;;;;;;;3.03;1.20;;;;;;;10.41;80.49;99534.22;5075762;28;20135;-72
2021/05/16 01:03:37;;;;;;;2.50;1.30;;;;;;;10.29;81.21;99528.09;5075112;28;20168;-71
2021/05/16 01:06:04;;;;;;;2.25;0.98;;;;;;;10.15;82.30;99529.09;5073831;28;20058;-74
2021/05/16 01:08:31;;;;;;;1.42;1.15;;;;;;;10.16;83.40;99524.66;5034511;28;20048;-73
2021/05/16 01:10:59;;;;;;;3.40;1.50;;;;;;;10.21;82.70;99526.97;5043313;28;20504;-72
2021/05/16 01:13:26;;;;;;;4.95;1.42;;;;;;;10.18;83.23;99529.81;5052883;28;20063;-71
2021/05/16 01:15:54;;;;;;;4.43;1.38;;;;;;;10.05;84.19;99536.00;5072372;28;20127;-72
2021/05/16 01:18:21;;;;;;;3.42;1.30;;;;;;;9.95;84.22;99523.63;5067107;28;20045;-71
2021/05/16 01:20:50;;;;;;;2.15;1.55;;;;;;;9.83;85.07;99517.50;5034819;28;20071;-72
2021/05/16 01:23:22;;;;;;;2.03;1.25;;;;;;;9.94;85.82;99520.16;5036393;28;20114;-72
2021/05/16 01:25:50;;;;;;;3.08;1.73;;;;;;;9.86;85.81;99528.63;5058363;28;20040;-72
2021/05/16 01:28:19;;;;;;;2.05;1.55;;;;;;;9.81;85.71;99530.75;5064667;28;20051;-72
2021/05/16 01:30:47;;;;;;;3.90;1.60;;;;;;;9.78;86.29;99530.16;5067193;28;20075;-71
2021/05/16 01:33:15;;;;;;;2.92;2.03;;;;;;;9.60;86.68;99527.91;5074478;28;20508;-71
2021/05/16 01:35:42;;;;;;;4.93;2.03;;;;;;;9.45;87.20;99533.41;5073428;28;20052;-72
2021/05/16 01:38:10;;;;;;;4.85;1.50;;;;;;;9.40;89.13;99528.47;5041004;28;20083;-72
2021/05/16 01:40:38;;;;;;;2.58;1.40;;;;;;;9.40;88.82;99531.09;5057097;28;20091;-72
2021/05/16 01:43:08;;;;;;;3.65;1.70;;;;;;;9.27;89.58;99536.38;5039564;28;20381;-72
2021/05/16 01:45:35;;;;;;;2.80;1.40;;;;;;;9.13;90.37;99541.78;5052636;28;20080;-72
2021/05/16 01:48:03;;;;;;;4.65;1.90;;;;;;;9.04;91.02;99534.53;5030143;28;21079;-72
2021/05/16 01:50:32;;;;;;;3.50;1.92;;;;;;;8.91;91.83;99542.44;5048734;28;20390;-71
2021/05/16 01:53:00;;;;;;;2.42;1.88;;;;;;;8.91;92.80;99542.44;5069028;28;20064;-72
2021/05/16 01:55:28;;;;;;;2.85;1.52;;;;;;;8.95;92.62;99540.44;5050658;28;20060;-72
2021/05/16 01:57:55;;;;;;;2.90;2.03;;;;;;;9.09;92.25;99542.94;5050413;28;20123;-72
2021/05/16 02:00:29;;;;;;;2.15;1.63;;;;;;;8.98;92.66;99543.69;5064844;28;20267;-72
2021/05/16 02:02:57;;;;;;;2.63;1.50;;;;;;;8.95;93.38;99543.06;5050542;28;20131;-71
2021/05/16 02:05:25;;;;;;;4.22;1.83;;;;;;;8.82;94.14;99546.53;5069090;28;20048;-72
2021/05/16 02:07:52;;;;;;;2.72;1.77;;;;;;;8.69;95.01;99540.47;5049801;28;20040;-70
2021/05/16 02:10:21;;;;;;;3.22;1.83;;;;;;;8.60;95.38;99539.31;5056574;28;20063;-71
2021/05/16 02:12:48;;;;;;;4.07;1.85;;;;;;;8.58;95.69;99538.56;5047996;28;20518;-70
2021/05/16 02:15:16;;;;;;;4.05;2.17;;;;;;;8.52;96.78;99540.78;5047977;28;20063;-73
2021/05/16 02:17:43;;;;;;;2.88;2.03;;;;;;;8.47;96.55;99543.72;5061179;28;20061;-72
2021/05/16 02:20:15;;;;;;;4.80;1.90;;;;;;;8.41;97.65;99546.72;5038724;28;20352;-71
2021/05/16 02:22:42;;;;;;;3.80;2.38;;;;;;;8.30;97.43;99549.22;5031519;28;20040;-72
2021/05/16 02:29:22;;;;;;;2.72;2.13;;;;;;;8.53;98.28;99556.41;5061099;28;20050;-71
2021/05/16 02:31:50;;;;;;;3.97;1.83;;;;;;;8.45;97.95;99563.09;5071530;28;20052;-71
2021/05/16 02:34:17;;;;;;;2.90;1.98;;;;;;;8.43;98.53;99559.75;5072286;28;20368;-72
2021/05/16 02:36:45;;;;;;;4.15;2.17;;;;;;;8.55;98.88;99551.88;5066497;28;20129;-70
2021/05/16 02:39:12;;;;;;;5.05;2.67;;;;;;;8.50;98.64;99553.97;5068594;28;20817;-71
2021/05/16 02:41:39;;;;;;;2.72;1.90;;;;;;;8.39;99.46;99555.66;5046387;28;20060;-70
2021/05/16 02:44:06;;;;;;;4.00;2.05;;;;;;;8.39;99.54;99561.75;5019433;28;20055;-70
2021/05/16 02:46:34;;;;;;;5.68;2.50;;;;;;;8.50;99.08;99553.97;5069459;28;20063;-71
2021/05/16 02:49:01;;;;;;;3.00;1.70;;;;;;;8.56;98.24;99558.81;5035266;28;20048;-71
2021/05/16 02:51:29;;;;;;;3.67;1.98;;;;;;;8.67;98.64;99549.38;5030466;28;20383;-71
2021/05/16 02:53:56;;;;;;;2.97;2.08;;;;;;;8.74;97.75;99551.50;5067380;28;20436;-71
2021/05/16 02:56:23;;;;;;;3.17;1.95;;;;;;;8.92;96.18;99552.00;5050124;28;20335;-71
2021/05/16 02:58:50;;;;;;;3.67;2.10;;;;;;;9.11;95.35;99560.28;5028612;28;20055;-71
2021/05/16 03:01:17;;;;;;;2.00;1.73;;;;;;;9.12;95.37;99558.50;5051337;28;20056;-70
2021/05/16 03:03:44;;;;;;;5.03;2.30;;;;;;;8.99;96.17;99549.78;5047026;28;20051;-70
2021/05/16 03:06:12;;;;;;;2.53;2.08;;;;;;;8.80;97.05;99552.84;5043865;28;20132;-71
2021/05/16 03:08:39;;;;;;;3.50;2.00;;;;;;;8.62;97.91;99552.31;5077058;28;20521;-72
2021/05/16 03:11:06;;;;;;;4.18;1.77;;;;;;;8.46;98.86;99554.28;5068596;28;20062;-71
2021/05/16 03:13:33;;;;;;;2.83;2.17;;;;;;;8.31;99.51;99562.19;5048721;28;20045;-71
2021/05/16 03:16:00;;;;;;;7.57;2.78;;;;;;;8.26;100.00;99555.59;5065353;28;20044;-70
2021/05/16 03:18:28;;;;;;;2.75;2.33;;;;;;;8.20;100.00;99546.34;5066029;28;20049;-70
2021/05/16 03:20:55;;;;;;;6.15;2.13;;;;;;;8.25;100.00;99548.69;5066175;28;20165;-71
2021/05/16 03:23:26;;;;;;;5.72;1.95;;;;;;;8.22;100.00;99548.88;5075488;28;20044;-71
2021/05/16 03:25:58;;;;;;;3.90;2.25;;;;;;;8.22;100.00;99543.63;5059139;28;20590;-71
2021/05/16 03:28:25;;;;;;;2.28;1.77;;;;;;;8.19;100.00;99539.41;5047159;28;20083;-70
2021/05/16 03:30:52;;;;;;;2.90;1.73;;;;;;;8.23;100.00;99547.91;5067136;28;20053;-71
2021/05/16 03:33:20;;;;;;;3.60;2.00;;;;;;;8.25;100.00;99544.28;5066050;28;20150;-71
2021/05/16 03:35:48;;;;;;;6.40;1.95;;;;;;;8.22;100.00;99546.25;5028875;28;20506;-71
2021/05/16 03:38:15;;;;;;;2.22;1.60;;;;;;;8.40;100.00;99541.59;5054124;28;20395;-71
2021/05/16 03:40:42;;;;;;;3.15;1.90;;;;;;;8.39;100.00;99542.53;5049806;28;20051;-71
2021/05/16 03:43:10;;;;;;;4.50;2.00;;;;;;;8.36;100.00;99541.78;5067800;28;20051;-70
2021/05/16 03:45:37;;;;;;;3.75;2.20;;;;;;;8.49;100.00;99546.22;5031583;28;20082;-70
2021/05/16 03:48:05;;;;;;;2.83;1.77;;;;;;;8.74;98.73;99548.88;5029295;28;20057;-72
2021/05/16 03:50:32;;;;;;;4.15;2.20;;;;;;;9.04;97.77;99545.88;5053631;28;20052;-71
2021/05/16 03:52:59;;;;;;;6.35;2.13;;;;;;;9.22;96.22;99548.16;5069303;28;20071;-71
2021/05/16 03:55:26;;;;;;;2.85;1.75;;;;;;;9.42;93.82;99547.63;5048649;28;20049;-71
2021/05/16 03:57:53;;;;;;;3.33;1.60;;;;;;;9.59;92.98;99557.75;5035704;28;20136;-70
2021/05/16 04:00:23;;;;;;;1.80;1.45;;;;;;;9.63;92.08;99545.22;5068425;28;20055;-71
2021/05/16 04:02:51;;;;;;;2.10;1.60;;;;;;;9.69;91.61;99547.41;5062924;28;20049;-71
2021/05/16 04:05:19;;;;;;;2.67;1.90;;;;;;;9.82;90.93;99552.63;5070253;28;20044;-71
2021/05/16 04:07:47;;;;;;;2.88;2.00;;;;;;;10.00;89.27;99548.66;5047204;28;20122;-71
2021/05/16 04:10:14;;;;;;;2.50;1.65;;;;;;;10.10;88.33;99547.00;5064088;28;20538;-71
2021/05/16 04:12:41;;;;;;;2.88;1.70;;;;;;;10.22;88.06;99540.00;5034649;28;20048;-69
2021/05/16 04:15:09;;;;;;;3.20;1.92;;;;;;;10.47;86.99;99546.09;5050045;28;20518;-71
2021/05/16 04:17:36;;;;;;;2.10;1.45;;;;;;;10.64;85.66;99545.66;5033231;28;20052;-71
2021/05/16 04:20:04;;;;;;;2.53;1.73;;;;;;;11.06;83.55;99546.75;5067573;28;20499;-71
2021/05/16 04:22:31;;;;;;;2.42;1.63;;;;;;;11.58;80.87;99545.25;5069729;28;20063;-72
2021/05/16 04:24:59;;;;;;;3.33;1.55;;;;;;;12.28;77.28;99543.94;5056408;28;20049;-70
2021/05/16 04:27:26;;;;;;;1.40;1.20;;;;;;;13.85;71.81;99539.22;5048143;28;20494;-70
2021/05/16 04:29:54;;;;;;;5.40;1.90;;;;;;;15.68;63.56;99547.75;5046249;28;20067;-71
2021/05/16 04:32:21;;;;;;;2.25;1.40;;;;;;;17.26;57.46;99538.00;5067823;28;20098;-70
2021/05/16 04:34:49;;;;;;;2.72;1.20;;;;;;;18.17;52.69;99531.94;5053725;28;20044;-70
2021/05/16 04:37:16;;;;;;;2.33;1.30;;;;;;;18.44;51.71;99541.44;5062242;28;20451;-70
2021/05/16 04:39:44;;;;;;;2.20;1.30;;;;;;;19.73;47.44;99538.59;5045142;28;20036;-69
2021/05/16 04:42:11;;;;;;;2.75;1.30;;;;;;;20.14;46.67;99538.31;5055927;28;20406;-70
2021/05/16 04:44:38;;;;;;;3.10;1.40;;;;;;;20.58;44.84;99538.50;5065057;28;20044;-70
2021/05/16 04:47:06;;;;;;;4.22;1.40;;;;;;;18.92;47.72;99540.56;5053727;28;20048;-70
2021/05/16 04:49:33;;;;;;;3.00;1.15;;;;;;;17.64;51.92;99541.97;5071284;28;20528;-69
2021/05/16 04:52:01;;;;;;;1.50;1.25;;;;;;;16.37;55.36;99538.25;5045614;28;20502;-72
2021/05/16 04:54:29;;;;;;;2.33;1.30;;;;;;;15.75;58.00;99555.94;5065717;28;20402;-70
2021/05/16 04:56:56;;;;;;;3.38;1.73;;;;;;;15.18;60.32;99550.78;5065130;28;20626;-70
2021/05/16 04:59:23;;;;;;;4.25;1.60;;;;;;;15.32;60.82;99546.81;5056202;28;20059;-71
2021/05/16 05:01:51;;;;;;;2.58;1.40;;;;;;;14.99;61.59;99538.41;5066808;28;20064;-71
2021/05/16 05:04:18;;;;;;;2.70;1.42;;;;;;;14.18;64.36;99540.63;5054166;28;20057;-71
2021/05/16 05:06:45;;;;;;;2.05;1.27;;;;;;;13.81;66.24;99556.34;5050362;28;20053;-71
2021/05/16 05:09:14;;;;;;;3.25;1.52;;;;;;;13.80;66.88;99557.34;5039207;28;20085;-70
2021/05/16 05:11:41;;;;;;;2.30;1.40;;;;;;;13.37;68.02;99556.69;5047700;28;20049;-71
2021/05/16 05:14:08;;;;;;;2.53;1.35;;;;;;;13.54;68.05;99557.00;5057148;28;20052;-70
2021/05/16 05:16:36;;;;;;;2.72;1.30;;;;;;;14.03;65.93;99555.25;5065864;28;20094;-70
2021/05/16 05:19:03;;;;;;;1.80;1.35;;;;;;;14.18;65.68;99562.66;5045357;28;20062;-71
2021/05/16 05:21:30;;;;;;;2.22;1.58;;;;;;;14.09;65.42;99562.63;5059972;28;20082;-70
2021/05/16 05:23:57;;;;;;;2.58;1.63;;;;;;;13.94;66.27;99568.34;5072223;28;20388;-71
2021/05/16 05:26:24;;;;;;;3.13;1.38;;;;;;;15.12;62.80;99562.78;5073794;28;20124;-70
2021/05/16 05:28:52;;;;;;;5.00;1.35;;;;;;;15.57;60.43;99562.00;5052116;28;20383;-70
2021/05/16 05:31:19;;;;;;;1.98;1.30;;;;;;;15.46;60.27;99567.53;5065591;28;20052;-72
2021/05/16 05:33:46;;;;;;;1.45;1.27;;;;;;;15.14;61.60;99560.00;5053690;28;20408;-71
2021/05/16 05:36:13;;;;;;;1.70;1.20;;;;;;;15.24;61.65;99565.25;5046490;28;20131;-70
2021/05/16 05:38:40;;;;;;;4.57;1.80;;;;;;;15.23;61.14;99561.78;5051761;28;20490;-69
2021/05/16 05:41:08;;;;;;;1.77;1.30;;;;;;;15.12;61.27;99560.13;5036252;28;20048;-71
2021/05/16 05:43:35;;;;;;;3.03;1.40;;;;;;;14.98;62.08;99562.41;5072303;28;20045;-72
2021/05/16 05:46:02;;;;;;;3.00;1.35;;;;;;;14.37;63.95;99569.75;5050420;28;20056;-71
2021/05/16 05:48:34;;;;;;;2.38;1.35;;;;;;;14.34;64.88;99566.56;5046255;28;20052;-71
2021/05/16 05:51:01;;;;;;;1.52;1.20;;;;;;;14.75;63.82;99567.22;5048002;28;20046;-71
2021/05/16 05:53:29;;;;;;;2.03;1.40;;;;;;;15.20;61.69;99564.72;5029111;28;20152;-71
2021/05/16 05:55:59;;;;;;;4.22;1.23;;;;;;;15.81;60.08;99563.31;5052344;28;20074;-72
2021/05/16 05:58:30;;;;;;;2.67;1.70;;;;;;;16.83;57.18;99558.38;5035631;28;20060;-71
2021/05/16 06:00:57;;;;;;;2.97;2.08;;;;;;;18.05;52.70;99551.91;5040244;28;20033;-71
2021/05/16 06:03:24;;;;;;;2.70;1.40;;;;;;;19.31;50.89;99554.94;5055538;28;20076;-72
2021/05/16 06:05:52;;;;;;;1.52;1.00;;;;;;;21.47;43.80;99558.09;5059919;28;20064;-70
2021/05/16 06:08:19;;;;;;;2.35;1.27;;;;;;;23.43;39.26;99543.34;5045368;28;20076;-71
2021/05/16 06:10:47;;;;;;;3.55;1.23;;;;;;;24.89;36.05;99541.72;5035523;28;20043;-69
2021/05/16 06:13:14;;;;;;;1.85;1.05;;;;;;;24.21;36.85;99549.16;5028692;28;20583;-70
2021/05/16 06:15:41;;;;;;;2.00;1.23;;;;;;;22.07;40.50;99544.56;5034546;28;20398;-70
2021/05/16 06:18:09;;;;;;;2.15;1.20;;;;;;;19.93;45.49;99549.66;5062048;28;20048;-71
2021/05/16 06:20:36;;;;;;;2.33;1.45;;;;;;;19.88;46.47;99547.50;5049190;28;20057;-71
2021/05/16 06:23:04;;;;;;;2.28;1.13;;;;;;;20.70;44.78;99545.03;5055402;28;20067;-71
2021/05/16 06:25:31;;;;;;;4.07;1.33;;;;;;;20.21;45.34;99557.97;5074694;28;20055;-70
2021/05/16 06:27:59;;;;;;;1.52;1.02;;;;;;;20.40;44.83;99552.16;5066633;28;20132;-70
2021/05/16 06:30:27;;;;;;;2.97;1.42;;;;;;;22.08;41.46;99536.31;5075988;28;20146;-70
2021/05/16 06:32:54;;;;;;;1.67;1.38;;;;;;;23.25;38.74;99539.31;5040438;28;20037;-70
2021/05/16 06:35:22;;;;;;;1.75;1.10;;;;;;;24.33;36.48;99538.63;5058557;28;20059;-69
2021/05/16 06:37:49;;;;;;;2.13;1.20;;;;;;;25.52;34.12;99533.88;5015121;28;20044;-70
2021/05/16 06:40:16;;;;;;;2.03;1.50;;;;;;;24.99;34.76;99538.59;5070473;28;20135;-72
2021/05/16 06:42:43;;;;;;;2.22;1.10;;;;;;;24.21;36.01;99551.84;5060082;28;20052;-72
2021/05/16 06:45:11;;;;;;;2.13;1.00;;;;;;;24.72;35.03;99546.72;5048201;28;20056;-71
2021/05/16 06:47:39;;;;;;;2.08;1.02;;;;;;;24.96;33.98;99556.00;5055141;28;20113;-70
2021/05/16 06:50:07;;;;;;;5.63;1.77;;;;;;;25.42;33.48;99554.25;5048374;28;20047;-70
2021/05/16 06:52:35;;;;;;;2.95;1.45;;;;;;;25.13;33.96;99561.81;5053003;28;20261;-72
2021/05/16 06:55:03;;;;;;;1.60;0.95;;;;;;;25.20;33.95;99567.16;5056764;28;20113;-71
2021/05/16 06:57:31;;;;;;;6.63;1.58;;;;;;;23.90;35.86;99569.34;5024655;28;20047;-70
2021/05/16 07:00:00;;;;;;;2.00;1.27;;;;;;;21.71;40.64;99564.16;5052140;28;20052;-71
2021/05/16 07:02:27;;;;;;;2.88;1.00;;;;;;;19.85;45.25;99579.06;5074941;28;20037;-70
2021/05/16 07:04:55;;;;;;;2.00;1.10;;;;;;;18.10;50.57;99584.19;5056817;28;20049;-71
2021/05/16 07:07:23;;;;;;;6.30;1.20;;;;;;;17.33;53.08;99594.06;5047624;28;20057;-73
2021/05/16 07:09:51;;;;;;;1.83;1.35;;;;;;;16.66;56.28;99591.13;5081318;28;20483;-71
2021/05/16 07:12:18;;;;;;;2.22;1.20;;;;;;;15.88;60.09;99594.38;5071219;28;20124;-71
2021/05/16 07:14:45;;;;;;;2.15;1.40;;;;;;;15.53;63.02;99589.81;5050264;28;20143;-69
2021/05/16 07:17:12;;;;;;;3.17;1.33;;;;;;;15.01;67.03;99592.13;5052973;28;20333;-72
2021/05/16 07:19:40;;;;;;;1.98;1.27;;;;;;;14.52;69.24;99587.91;5075842;28;20139;-71
2021/05/16 07:22:07;;;;;;;2.45;1.40;;;;;;;13.84;74.53;99583.38;5068796;28;20048;-70
2021/05/16 07:24:35;;;;;;;5.07;1.45;;;;;;;13.46;78.68;99583.25;5055588;28;20314;-71
2021/05/16 07:27:02;;;;;;;2.75;1.55;;;;;;;13.29;80.55;99574.19;5042870;28;20469;-71
2021/05/16 07:29:31;;;;;;;3.95;1.75;;;;;;;13.45;82.62;99577.13;5038384;28;20052;-70
2021/05/16 07:31:58;;;;;;;4.03;1.50;;;;;;;13.54;81.28;99565.75;5053496;28;20055;-70
2021/05/16 07:34:26;;;;;;;9.43;1.90;;;;;;;13.39;82.10;99572.41;5053511;28;20052;-71
2021/05/16 07:36:53;;;;;;;2.13;1.30;;;;;;;13.77;80.14;99568.19;5045219;28;20614;-72
2021/05/16 07:39:20;;;;;;;2.35;1.42;;;;;;;14.64;78.09;99571.72;5063114;28;20049;-71
2021/05/16 07:41:48;;;;;;;3.60;1.45;;;;;;;15.57;72.62;99579.75;5062695;28;20052;-71
2021/05/16 07:44:15;;;;;;;2.03;1.30;;;;;;;16.38;67.42;99571.81;5060634;28;20459;-72
2021/05/16 07:46:42;;;;;;;4.15;1.45;;;;;;;16.23;69.23;99581.31;5067804;28;20044;-72
2021/05/16 07:49:10;;;;;;;5.47;1.50;;;;;;;16.57;68.95;99576.09;5071443;28;20568;-73
2021/05/16 07:51:37;;;;;;;2.10;1.35;;;;;;;16.66;67.68;99570.72;5050397;28;20272;-72
2021/05/16 07:54:04;;;;;;;4.00;1.63;;;;;;;16.41;70.08;99571.50;5030033;28;20051;-71
2021/05/16 07:56:31;;;;;;;3.63;1.70;;;;;;;16.10;69.91;99574.53;5063535;28;20151;-72
2021/05/16 07:58:58;;;;;;;2.03;1.25;;;;;;;16.26;67.96;99575.69;5042438;28;20315;-71
2021/05/16 08:01:26;;;;;;;2.28;1.42;;;;;;;16.36;65.90;99579.09;5030684;28;20482;-71
2021/05/16 08:03:53;;;;;;;3.28;1.88;;;;;;;15.87;69.18;99582.13;5067545;28;20041;-72
2021/05/16 08:06:20;;;;;;;3.97;1.30;;;;;;;15.76;70.03;99587.66;5054030;28;20168;-70
2021/05/16 08:08:47;;;;;;;1.48;1.30;;;;;;;15.98;70.20;99586.38;5045159;28;20044;-72
2021/05/16 08:11:14;;;;;;;2.42;1.48;;;;;;;15.89;69.76;99589.91;5070975;28;20543;-72
2021/05/16 08:13:42;;;;;;;2.72;1.63;;;;;;;15.50;71.87;99594.59;5075241;28;20203;-72
2021/05/16 08:16:09;;;;;;;1.60;1.02;;;;;;;15.47;72.95;99590.41;5069740;28;20051;-70
2021/05/16 08:18:36;;;;;;;2.17;1.40;;;;;;;15.45;73.21;99589.72;5072895;28;20151;-71
2021/05/16 08:21:03;;;;;;;1.92;1.33;;;;;;;15.74;71.41;99586.13;5075260;28;20143;-71
2021/05/16 08:23:30;;;;;;;3.10;1.15;;;;;;;16.02;69.75;99584.25;5058160;28;20066;-71
2021/05/16 08:25:58;;;;;;;1.95;1.10;;;;;;;16.43;68.40;99582.78;5069652;28;20087;-72
2021/05/16 08:28:25;;;;;;;2.00;1.17;;;;;;;16.70;67.03;99581.84;5081436;28;20166;-72
2021/05/16 08:30:52;;;;;;;2.67;1.30;;;;;;;16.88;64.83;99582.66;5080030;28;20523;-71
2021/05/16 08:33:20;;;;;;;7.68;1.50;;;;;;;16.59;65.45;99595.41;5078508;22;20079;-71
2021/05/16 08:35:47;;;;;;;1.83;1.00;;;;;;;16.72;66.50;99590.53;5075019;28;20122;-71
2021/05/16 08:42:16;;;;;;;1.38;0.80;;;;;;;16.86;65.56;99589.16;5072600;28;20267;-70
2021/05/16 08:44:44;;;;;;;3.33;1.50;;;;;;;17.06;64.87;99587.94;5083695;28;20094;-70
2021/05/16 08:47:13;;;;;;;2.38;1.05;;;;;;;17.37;63.25;99584.78;5076663;28;20597;-71
2021/05/16 08:49:40;;;;;;;1.58;0.90;;;;;;;17.41;62.97;99581.63;5072150;28;20343;-70
2021/05/16 08:52:07;;;;;;;2.25;0.95;;;;;;;17.33;60.71;99586.91;5063685;28;20109;-73
2021/05/16 08:54:35;;;;;;;0.90;0.80;;;;;;;17.01;61.21;99584.06;5066762;28;20514;-72
2021/05/16 08:57:02;;;;;;;3.20;0.80;;;;;;;16.97;62.85;99588.88;5079124;28;20072;-72
2021/05/16 08:59:29;;;;;;;1.38;0.90;;;;;;;17.09;62.25;99586.78;5054969;28;20151;-70
2021/05/16 09:01:58;;;;;;;2.15;0.80;;;;;;;17.67;58.94;99583.41;5078267;28;20086;-70
2021/05/16 09:04:34;;;;;;;1.15;0.70;;;;;;;17.12;60.51;99586.50;5058991;28;20566;-71
2021/05/16 09:07:03;;;;;;;3.63;1.23;;;;;;;16.32;63.11;99596.31;5075031;28;20032;-70
2021/05/16 09:09:33;;;;;;;1.42;0.68;;;;;;;16.02;63.49;99598.34;5073469;28;20048;-71
2021/05/16 09:12:01;;;;;;;2.13;0.82;;;;;;;15.52;64.54;99598.75;5081259;28;20071;-70
2021/05/16 09:14:48;;;;;;;1.88;1.00;;;;;;;14.92;68.73;99603.59;5034904;28;20075;-71
2021/05/16 09:17:34;;;;;;;2.70;1.30;;;;;;;13.72;76.72;99607.44;5073508;28;20063;-70
2021/05/16 09:20:08;;;;;;;1.70;1.00;;;;;;;13.49;80.91;99609.44;5061102;28;20147;-70
2021/05/16 09:22:40;;;;;;;2.33;1.23;;;;;;;13.65;81.22;99607.97;5077267;28;20059;-69
2021/05/16 09:25:26;;;;;;;1.48;0.98;;;;;;;13.41;82.37;99613.56;5042991;28;20043;-70
2021/05/16 09:28:05;;;;;;;2.17;1.10;;;;;;;13.64;84.68;99606.31;5065459;28;20047;-70
2021/05/16 09:30:34;;;;;;;2.70;1.00;;;;;;;13.66;82.85;99601.72;5060094;28;20048;-70
2021/05/16 09:33:12;;;;;;;2.60;1.20;;;;;;;13.96;84.79;99607.03;5062058;28;20123;-71
2021/05/16 09:35:57;;;;;;;3.00;1.40;;;;;;;14.56;82.11;99608.66;5062399;28;20110;-72
2021/05/16 09:38:25;;;;;;;6.63;1.20;;;;;;;15.07;79.34;99607.44;5072938;28;20085;-70
2021/05/16 09:40:54;;;;;;;2.42;1.60;;;;;;;15.46;75.44;99604.66;5067676;28;20056;-70
2021/05/16 09:43:32;;;;;;;1.42;1.05;;;;;;;16.16;74.78;99607.63;5062412;28;20143;-69
2021/05/16 09:46:05;;;;;;;2.22;1.20;;;;;;;16.89;69.34;99595.00;5050638;28;20461;-71
2021/05/16 09:48:34;;;;;;;3.25;1.20;;;;;;;17.46;64.81;99603.25;5051965;28;20051;-71
2021/05/16 09:51:18;;;;;;;4.55;1.10;;;;;;;17.65;63.14;99596.03;5056403;28;20414;-71
2021/05/16 09:53:56;;;;;;;4.40;1.17;;;;;;;17.22;64.35;99592.53;5063715;28;20048;-69
2021/05/16 09:56:35;;;;;;;2.33;1.10;;;;;;;18.07;62.90;99592.53;5058492;28;20055;-69
2021/05/16 09:59:06;;;;;;;3.95;1.10;;;;;;;18.27;62.74;99588.53;5067490;28;20088;-70
2021/05/16 10:01:34;;;;;;;4.40;1.20;;;;;;;18.23;62.67;99588.03;5037415;28;20048;-71
2021/05/16 10:04:02;;;;;;;4.25;1.50;;;;;;;18.70;59.80;99581.25;5054791;28;20053;-72
2021/05/16 10:06:30;;;;;;;1.73;1.10;;;;;;;18.70;60.11;99579.44;5048948;28;20142;-72
2021/05/16 10:08:58;;;;;;;10.63;4.05;;;;;;;18.45;59.55;99588.38;5029093;28;20048;-70
2021/05/16 10:11:30;;;;;;;3.13;0.80;;;;;;;17.97;60.15;99587.34;5069234;28;20445;-72
2021/05/16 10:14:02;;;;;;;2.47;0.93;;;;;;;17.42;60.11;99582.47;5074990;28;20147;-72
2021/05/16 10:16:41;;;;;;;4.97;1.10;;;;;;;17.60;60.64;99585.03;5049412;28;20061;-70
2021/05/16 10:19:17;;;;;;;2.70;1.10;;;;;;;17.28;63.34;99585.72;5079264;28;20091;-71
2021/05/16 10:21:45;;;;;;;3.15;1.35;;;;;;;17.11;61.37;99583.00;5059570;28;20059;-70
2021/05/16 10:24:13;;;;;;;3.50;0.93;;;;;;;16.93;62.11;99582.19;5060809;28;20044;-70
2021/05/16 10:26:41;;;;;;;3.80;1.15;;;;;;;17.08;62.29;99572.66;5064299;28;20046;-71
2021/05/16 10:29:10;;;;;;;6.28;1.50;;;;;;;17.27;61.93;99573.44;5050373;28;20055;-70
2021/05/16 10:31:38;;;;;;;3.90;1.15;;;;;;;17.46;59.88;99581.16;5075340;28;20136;-71
2021/05/16 10:34:44;;;;;;;2.13;0.93;;;;;;;17.95;58.64;99578.69;5049180;28;20076;-70
2021/05/16 10:37:41;;;;;;;2.38;0.73;;;;;;;18.63;57.35;99570.38;5074892;28;20058;-71
2021/05/16 10:40:12;;;;;;;2.47;0.85;;;;;;;19.02;56.15;99568.88;5040281;28;20055;-70
2021/05/16 10:42:44;;;;;;;5.90;1.42;;;;;;;19.09;55.22;99557.38;5073693;28;20131;-72
2021/05/16 10:45:38;;;;;;;5.05;1.05;;;;;;;18.25;58.05;99563.91;5058422;28;20044;-70
2021/05/16 10:48:07;;;;;;;4.93;2.15;;;;;;;19.23;55.20;99563.81;5068212;28;20044;-71
2021/05/16 10:50:37;;;;;;;5.10;1.60;;;;;;;19.13;54.78;99556.00;5057139;28;20048;-69
2021/05/16 10:53:19;;;;;;;5.75;1.60;;;;;;;19.21;52.90;99552.47;5039447;28;20047;-71
2021/05/16 10:55:52;;;;;;;7.55;2.08;;;;;;;19.37;52.29;99560.44;5058135;28;20143;-70
2021/05/16 10:58:31;;;;;;;5.68;1.45;;;;;;;19.72;49.15;99555.59;5073687;28;20063;-70
2021/05/16 11:01:08;;;;;;;6.53;1.95;;;;;;;19.43;49.05;99543.72;5082695;28;20036;-72
2021/05/16 11:03:46;;;;;;;4.40;1.67;;;;;;;19.13;49.06;99542.66;5061281;28;20076;-71
2021/05/16 11:06:18;;;;;;;6.10;1.30;;;;;;;19.15;49.80;99540.66;5078838;28;20052;-70
2021/05/16 11:08:49;;;;;;;4.75;1.20;;;;;;;19.18;49.50;99545.66;5061171;28;20432;-71
2021/05/16 11:11:33;;;;;;;4.25;1.10;;;;;;;19.21;48.79;99531.13;5041207;28;20403;-71
2021/05/16 11:14:03;;;;;;;8.52;1.65;;;;;;;19.10;47.99;99524.34;5058569;28;20232;-69
2021/05/16 11:16:30;;;;;;;8.43;1.88;;;;;;;19.01;48.50;99533.38;5032737;28;20115;-70
2021/05/16 11:19:04;;;;;;;8.35;1.73;;;;;;;18.68;49.56;99516.56;5054079;28;20135;-69
2021/05/16 11:21:32;;;;;;;4.63;1.25;;;;;;;18.63;47.98;99524.25;5029296;28;20482;-72
2021/05/16 11:24:00;;;;;;;6.00;0.93;;;;;;;18.33;50.26;99523.13;5056113;28;20118;-70
2021/05/16 11:26:27;;;;;;;2.70;1.00;;;;;;;18.59;50.09;99521.09;5058153;28;20361;-70
2021/05/16 11:28:56;;;;;;;3.58;0.85;;;;;;;19.19;49.06;99515.31;5074157;28;20139;-70
2021/05/16 11:31:27;;;;;;;3.42;0.95;;;;;;;19.65;46.72;99510.09;5058473;28;20158;-70
2021/05/16 11:34:06;;;;;;;5.20;1.25;;;;;;;19.36;46.77;99523.22;5059755;28;20048;-71
2021/05/16 11:36:39;;;;;;;4.22;1.27;;;;;;;19.37;47.44;99512.41;5066552;28;20029;-71
2021/05/16 11:39:08;;;;;;;4.97;1.35;;;;;;;18.80;48.90;99509.91;5084484;28;20132;-70
2021/05/16 11:41:41;;;;;;;4.85;1.60;;;;;;;18.59;48.82;99512.25;5043360;28;20052;-71
2021/05/16 11:44:10;;;;;;;4.82;1.50;;;;;;;18.62;48.94;99502.09;5059742;28;20056;-69
2021/05/16 11:46:40;;;;;;;5.93;1.33;;;;;;;18.89;47.80;99510.72;5050789;28;20106;-70
2021/05/16 11:49:09;;;;;;;5.43;1.70;;;;;;;19.53;47.27;99508.78;5062971;28;20044;-71
2021/05/16 11:51:36;;;;;;;5.63;1.23;;;;;;;19.96;45.29;99507.38;5059298;28;20072;-69